createdAt,value
2023-02-11T00:01:42.887Z,30.52
2023-02-11T00:04:11.270Z,21.92
2023-02-11T00:06:39.427Z,25.67
2023-02-11T00:09:07.886Z,30.90
2023-02-11T00:11:35.970Z,42.65
2023-02-11T00:14:08.065Z,36.30
2023-02-11T00:16:37.556Z,26.70
2023-02-11T00:19:06.754Z,27.25
2023-02-11T00:21:34.961Z,35.85
2023-02-11T00:24:03.001Z,32.70
2023-02-11T00:26:35.853Z,32.78
2023-02-11T00:29:05.977Z,23.98
2023-02-11T00:31:35.103Z,18.48
2023-02-11T00:34:03.173Z,18.08
2023-02-11T00:36:31.581Z,18.40
2023-02-11T00:39:00.887Z,22.45
2023-02-11T00:41:30.008Z,22.52
2023-02-11T00:44:01.755Z,26.85
2023-02-11T00:46:30.391Z,18.95
2023-02-11T00:48:58.810Z,19.08
2023-02-11T00:51:28.649Z,21.05
2023-02-11T00:53:57.296Z,19.75
2023-02-11T00:56:25.196Z,18.27
2023-02-11T00:58:54.287Z,18.90
2023-02-11T01:01:22.436Z,18.70
2023-02-11T01:03:50.425Z,27.35
2023-02-11T01:06:18.507Z,21.27
2023-02-11T01:08:46.460Z,23.08
2023-02-11T01:11:18.101Z,25.10
2023-02-11T01:13:47.238Z,21.92
2023-02-11T01:16:17.128Z,27.85
2023-02-11T01:21:15.078Z,25.98
2023-02-11T01:28:40.555Z,18.13
2023-02-11T01:31:08.895Z,20.52
2023-02-11T01:33:36.726Z,31.75
2023-02-11T01:36:08.435Z,23.13
2023-02-11T01:38:36.803Z,18.17
2023-02-11T01:41:11.355Z,21.15
2023-02-11T01:43:42.841Z,26.25
2023-02-11T01:46:29.274Z,28.13
2023-02-11T01:49:08.929Z,21.65
2023-02-11T01:52:01.940Z,27.92
2023-02-11T01:54:59.624Z,20.55
2023-02-11T01:57:31.388Z,16.23
2023-02-11T02:00:21.761Z,17.27
2023-02-11T02:03:04.476Z,19.38
2023-02-11T02:05:42.015Z,22.83
2023-02-11T02:08:32.474Z,17.70
2023-02-11T02:11:03.875Z,16.83
2023-02-11T02:13:34.314Z,17.10
2023-02-11T02:16:12.861Z,18.80
2023-02-11T02:19:08.788Z,18.75
2023-02-11T02:22:14.531Z,25.17
2023-02-11T02:25:01.264Z,14.30
2023-02-11T02:27:51.229Z,12.43
2023-02-11T02:30:43.856Z,12.55
2023-02-11T02:33:38.017Z,12.18
2023-02-11T02:36:14.722Z,12.13
2023-02-11T02:38:56.434Z,18.83
2023-02-11T02:41:30.146Z,14.23
2023-02-11T02:43:58.603Z,24.55
2023-02-11T02:46:30.106Z,36.88
2023-02-11T02:48:58.879Z,15.35
2023-02-11T02:51:58.213Z,12.93
2023-02-11T02:54:40.309Z,18.05
2023-02-11T02:58:54.206Z,18.45
2023-02-11T03:01:28.779Z,17.85
2023-02-11T03:04:18.661Z,18.90
2023-02-11T03:07:04.331Z,16.55
2023-02-11T03:09:42.954Z,21.73
2023-02-11T03:12:13.488Z,21.05
2023-02-11T03:14:42.326Z,22.27
2023-02-11T03:17:10.865Z,24.60
2023-02-11T03:19:44.679Z,22.00
2023-02-11T03:22:26.711Z,20.85
2023-02-11T03:24:56.532Z,18.00
2023-02-11T03:27:47.553Z,24.80
2023-02-11T03:30:26.450Z,17.27
2023-02-11T03:33:03.931Z,21.75
2023-02-11T03:36:03.851Z,19.00
2023-02-11T03:38:36.049Z,26.17
2023-02-11T03:41:08.170Z,21.65
2023-02-11T03:43:42.938Z,18.95
2023-02-11T03:46:13.766Z,25.23
2023-02-11T03:48:52.640Z,23.90
2023-02-11T03:51:22.567Z,23.63
2023-02-11T03:56:25.600Z,17.65
2023-02-11T03:58:53.687Z,23.88
2023-02-11T04:01:21.899Z,20.70
2023-02-11T04:03:49.767Z,24.58
2023-02-11T04:06:18.193Z,22.92
2023-02-11T04:08:46.066Z,22.45
2023-02-11T04:11:13.945Z,25.73
2023-02-11T04:13:41.739Z,26.13
2023-02-11T04:16:10.115Z,24.20
2023-02-11T04:18:38.334Z,22.08
2023-02-11T04:21:06.446Z,15.85
2023-02-11T04:23:34.300Z,14.32
2023-02-11T04:26:02.347Z,16.05
2023-02-11T04:28:30.328Z,13.38
2023-02-11T04:30:58.761Z,23.23
2023-02-11T04:33:26.827Z,20.92
2023-02-11T04:35:54.833Z,18.67
2023-02-11T04:38:24.421Z,18.02
2023-02-11T04:40:52.600Z,27.02
2023-02-11T04:43:20.547Z,24.10
2023-02-11T04:45:48.919Z,29.83
2023-02-11T04:48:17.056Z,33.42
2023-02-11T04:50:44.931Z,36.50
2023-02-11T04:53:12.891Z,38.15
2023-02-11T04:55:40.841Z,27.98
2023-02-11T04:58:08.814Z,45.75
2023-02-11T05:00:36.838Z,40.50
2023-02-11T05:03:04.598Z,36.13
2023-02-11T05:05:32.555Z,34.60
2023-02-11T05:08:00.551Z,34.50
2023-02-11T05:10:28.875Z,27.52
2023-02-11T05:12:56.964Z,25.20
2023-02-11T05:15:24.903Z,38.50
2023-02-11T05:17:53.285Z,34.00
2023-02-11T05:20:21.606Z,36.90
2023-02-11T05:22:49.587Z,31.02
2023-02-11T05:25:17.467Z,33.78
2023-02-11T05:27:45.588Z,31.25
2023-02-11T05:30:13.666Z,30.30
2023-02-11T05:32:42.460Z,26.80
2023-02-11T05:35:10.371Z,42.53
2023-02-11T05:37:38.616Z,34.22
2023-02-11T05:40:06.824Z,57.20
2023-02-11T05:42:34.803Z,54.88
2023-02-11T05:45:02.732Z,44.15
2023-02-11T05:47:30.861Z,36.20
2023-02-11T05:49:59.018Z,22.90
2023-02-11T05:52:26.953Z,23.85
2023-02-11T05:54:54.881Z,23.98
2023-02-11T05:57:23.089Z,32.00
2023-02-11T05:59:50.994Z,44.47
2023-02-11T06:02:19.192Z,67.25
2023-02-11T06:04:47.487Z,47.65
2023-02-11T06:07:15.629Z,54.35
2023-02-11T06:09:44.000Z,41.53
2023-02-11T06:12:12.934Z,33.03
2023-02-11T06:14:40.945Z,27.95
2023-02-11T06:17:09.219Z,31.88
2023-02-11T06:19:37.738Z,34.33
2023-02-11T06:22:06.094Z,34.92
2023-02-11T06:24:58.606Z,36.03
2023-02-11T06:27:22.434Z,46.38
2023-02-11T06:29:52.652Z,49.17
2023-02-11T06:32:42.091Z,57.65
2023-02-11T06:37:41.286Z,28.73
2023-02-11T06:40:10.469Z,34.70
2023-02-11T06:42:39.626Z,33.03
2023-02-11T06:45:13.420Z,32.75
2023-02-11T06:47:42.221Z,33.55
2023-02-11T06:50:13.926Z,42.42
2023-02-11T06:52:42.377Z,43.33
2023-02-11T06:55:10.570Z,36.08
2023-02-11T06:57:38.652Z,34.28
2023-02-11T07:00:09.461Z,33.08
2023-02-11T07:02:37.372Z,49.80
2023-02-11T07:05:07.438Z,46.05
2023-02-11T07:07:36.236Z,56.10
2023-02-11T07:10:04.891Z,40.63
2023-02-11T07:12:33.133Z,41.63
2023-02-11T07:15:01.309Z,44.58
2023-02-11T07:17:29.308Z,41.67
2023-02-11T07:19:57.292Z,34.67
2023-02-11T07:22:25.583Z,39.50
2023-02-11T07:24:53.677Z,31.50
2023-02-11T07:27:21.593Z,29.20
2023-02-11T07:29:49.560Z,27.23
2023-02-11T07:32:17.853Z,27.30
2023-02-11T07:34:46.019Z,26.92
2023-02-11T07:37:14.386Z,27.55
2023-02-11T07:39:42.292Z,30.13
2023-02-11T07:42:10.284Z,33.67
2023-02-11T07:44:38.295Z,30.20
2023-02-11T07:47:06.365Z,24.85
2023-02-11T07:49:34.340Z,27.02
2023-02-11T07:52:02.648Z,29.30
2023-02-11T07:54:30.797Z,35.50
2023-02-11T07:56:59.255Z,27.20
2023-02-11T07:59:27.689Z,33.60
2023-02-11T08:01:56.004Z,32.10
2023-02-11T08:04:24.039Z,42.65
2023-02-11T08:06:53.343Z,40.20
2023-02-11T08:09:21.477Z,45.08
2023-02-11T08:11:49.724Z,39.55
2023-02-11T08:14:17.708Z,38.10
2023-02-11T08:16:45.770Z,32.75
2023-02-11T08:19:16.263Z,24.45
2023-02-11T08:21:44.795Z,12.70
2023-02-11T08:24:12.870Z,12.13
2023-02-11T08:26:41.275Z,16.58
2023-02-11T08:29:12.379Z,16.52
2023-02-11T08:31:42.919Z,17.60
2023-02-11T08:34:14.413Z,20.00
2023-02-11T08:36:42.864Z,18.85
2023-02-11T08:39:22.565Z,13.85
2023-02-11T08:41:56.853Z,21.52
2023-02-11T08:44:25.266Z,20.55
2023-02-11T08:46:54.181Z,22.10
2023-02-11T08:49:23.041Z,21.73
2023-02-11T08:51:51.654Z,20.13
2023-02-11T08:54:19.763Z,21.65
2023-02-11T08:56:52.077Z,15.77
2023-02-11T08:59:20.440Z,14.82
2023-02-11T09:01:49.133Z,14.95
2023-02-11T09:04:17.905Z,17.35
2023-02-11T09:06:46.577Z,16.33
2023-02-11T09:09:16.140Z,15.50
2023-02-11T09:11:45.989Z,17.45
2023-02-11T09:14:23.199Z,15.85
2023-02-11T09:16:52.046Z,20.70
2023-02-11T09:19:21.308Z,21.05
2023-02-11T09:21:49.576Z,18.05
2023-02-11T09:24:17.632Z,18.17
2023-02-11T09:26:45.975Z,18.45
2023-02-11T09:29:14.078Z,17.80
2023-02-11T09:31:42.811Z,19.33
2023-02-11T09:34:11.886Z,29.20
2023-02-11T09:36:41.408Z,19.92
2023-02-11T09:39:17.209Z,23.27
2023-02-11T09:41:54.189Z,17.70
2023-02-11T09:44:25.771Z,19.77
2023-02-11T09:47:00.264Z,19.80
2023-02-11T09:49:49.118Z,17.95
2023-02-11T09:52:31.225Z,17.90
2023-02-11T09:55:02.380Z,20.10
2023-02-11T09:57:36.809Z,21.90
2023-02-11T10:00:32.618Z,21.38
2023-02-11T10:03:20.156Z,21.90
2023-02-11T10:06:23.563Z,18.58
2023-02-11T10:09:20.098Z,17.63
2023-02-11T10:11:59.712Z,19.85
2023-02-11T10:15:04.981Z,19.77
2023-02-11T10:18:07.149Z,19.67
2023-02-11T10:20:38.310Z,21.90
2023-02-11T10:23:26.123Z,21.52
2023-02-11T10:25:56.667Z,27.13
2023-02-11T10:28:31.689Z,26.42
2023-02-11T10:31:25.566Z,20.45
2023-02-11T10:34:06.819Z,26.25
2023-02-11T10:36:38.189Z,18.23
2023-02-11T10:39:26.396Z,17.20
2023-02-11T10:42:00.806Z,15.80
2023-02-11T10:44:33.531Z,17.98
2023-02-11T10:47:06.075Z,19.80
2023-02-11T10:49:43.233Z,25.83
2023-02-11T10:52:26.268Z,19.05
2023-02-11T10:54:58.437Z,16.92
2023-02-11T10:57:35.852Z,17.20
2023-02-11T11:00:27.174Z,21.20
2023-02-11T11:03:00.576Z,17.20
2023-02-11T11:05:47.756Z,17.23
2023-02-11T11:11:07.417Z,15.30
2023-02-11T11:36:02.851Z,15.75
2023-02-11T11:38:33.888Z,16.02
2023-02-11T12:25:35.883Z,14.50
2023-02-11T12:40:05.730Z,12.57
2023-02-11T12:52:16.927Z,14.60
2023-02-11T13:14:40.696Z,23.88
2023-02-11T13:26:27.251Z,20.70
2023-02-11T13:29:22.438Z,53.92
2023-02-11T13:35:09.799Z,26.98
2023-02-11T13:43:47.956Z,28.23
2023-02-11T14:00:31.386Z,18.58
2023-02-11T14:03:31.656Z,26.35
2023-02-11T14:06:37.869Z,31.70
2023-02-11T14:15:02.630Z,28.98
2023-02-11T14:44:22.673Z,17.05
2023-02-11T15:31:47.914Z,33.05
2023-02-11T15:34:16.591Z,22.92
2023-02-11T15:36:45.066Z,43.97
2023-02-11T15:39:18.920Z,52.00
2023-02-11T15:41:47.620Z,36.08
2023-02-11T15:44:33.093Z,41.30
2023-02-11T15:47:01.658Z,65.15
2023-02-11T15:49:30.615Z,53.83
2023-02-11T15:51:59.095Z,43.78
2023-02-11T15:54:31.946Z,49.85
2023-02-11T15:57:04.336Z,56.70
2023-02-11T15:59:38.998Z,39.30
2023-02-11T16:02:35.123Z,32.75
2023-02-11T16:05:10.198Z,31.25
2023-02-11T16:07:49.985Z,39.85
2023-02-11T16:10:27.937Z,42.13
2023-02-11T16:13:19.025Z,43.22
2023-02-11T16:16:04.396Z,55.20
2023-02-11T16:18:52.088Z,46.25
2023-02-11T16:21:43.645Z,46.40
2023-02-11T16:24:39.708Z,53.20
2023-02-11T16:27:22.009Z,51.85
2023-02-11T16:29:51.649Z,50.25
2023-02-11T16:32:23.964Z,33.67
2023-02-11T16:34:55.731Z,38.35
2023-02-11T16:37:25.556Z,32.13
2023-02-11T16:39:55.775Z,36.50
2023-02-11T16:42:24.894Z,30.80
2023-02-11T16:44:53.384Z,30.63
2023-02-11T16:47:27.518Z,35.65
2023-02-11T16:49:57.403Z,36.10
2023-02-11T16:52:26.383Z,31.65
2023-02-11T16:54:55.351Z,41.35
2023-02-11T16:57:28.805Z,36.25
2023-02-11T17:00:00.070Z,32.90
2023-02-11T17:02:33.312Z,29.33
2023-02-11T17:05:05.286Z,31.00
2023-02-11T17:07:34.539Z,50.95
2023-02-11T17:10:03.112Z,100.75
2023-02-11T17:12:31.994Z,84.38
2023-02-11T17:15:00.633Z,88.10
2023-02-11T17:17:30.370Z,65.65
2023-02-11T17:19:59.087Z,61.35
2023-02-11T17:22:27.546Z,58.15
2023-02-11T17:24:59.186Z,68.35
2023-02-11T17:27:28.041Z,93.78
2023-02-11T17:29:56.532Z,93.25
2023-02-11T17:32:25.135Z,98.57
2023-02-11T17:34:54.637Z,96.78
2023-02-11T17:37:22.881Z,89.95
2023-02-11T17:39:51.526Z,57.15
2023-02-11T17:42:20.144Z,65.50
2023-02-11T17:44:48.551Z,171.38
2023-02-11T17:47:17.109Z,118.10
2023-02-11T17:49:46.084Z,68.15
2023-02-11T17:52:15.255Z,64.55
2023-02-11T17:54:43.758Z,68.97
2023-02-11T17:57:13.700Z,65.70
2023-02-11T17:59:42.317Z,75.38
2023-02-11T18:02:13.037Z,70.72
2023-02-11T18:04:41.687Z,78.45
2023-02-11T18:07:09.993Z,66.00
2023-02-11T18:09:40.269Z,69.97
2023-02-11T18:12:09.370Z,85.38
2023-02-11T18:14:41.578Z,77.50
2023-02-11T18:17:11.210Z,82.78
2023-02-11T18:19:39.861Z,87.88
2023-02-11T18:22:09.849Z,73.45
2023-02-11T18:24:40.750Z,63.92
2023-02-11T18:27:09.725Z,64.72
2023-02-11T18:29:38.729Z,83.70
2023-02-11T18:32:07.408Z,80.82
2023-02-11T18:34:35.719Z,83.30
2023-02-11T18:37:04.198Z,78.22
2023-02-11T18:39:32.975Z,56.53
2023-02-11T18:42:01.467Z,75.28
2023-02-11T18:44:29.892Z,56.67
2023-02-11T18:46:58.578Z,54.03
2023-02-11T18:49:27.579Z,67.47
2023-02-11T18:51:58.625Z,44.35
2023-02-11T18:54:27.296Z,75.07
2023-02-11T18:56:55.683Z,109.07
2023-02-11T18:59:24.198Z,84.18
2023-02-11T19:01:52.828Z,54.58
2023-02-11T19:04:21.264Z,57.97
2023-02-11T19:06:50.384Z,60.25
2023-02-11T19:09:20.596Z,95.82
2023-02-11T19:11:52.671Z,72.93
2023-02-11T19:14:25.450Z,62.45
2023-02-11T19:16:56.938Z,85.93
2023-02-11T19:19:28.627Z,68.95
2023-02-11T19:21:58.720Z,61.35
2023-02-11T19:24:28.848Z,90.28
2023-02-11T19:26:59.535Z,95.70
2023-02-11T19:29:28.824Z,84.82
2023-02-11T19:31:57.275Z,86.00
2023-02-11T19:34:25.875Z,63.88
2023-02-11T19:36:54.815Z,75.30
2023-02-11T19:39:25.116Z,88.35
2023-02-11T19:41:54.183Z,111.85
2023-02-11T19:44:22.571Z,103.90
2023-02-11T19:46:53.727Z,113.40
2023-02-11T19:49:26.824Z,140.60
2023-02-11T19:51:58.639Z,113.18
2023-02-11T19:54:29.491Z,122.53
2023-02-11T19:56:59.103Z,74.78
2023-02-11T19:59:27.914Z,100.05
2023-02-11T20:01:56.398Z,70.32
2023-02-11T20:04:25.465Z,91.40
2023-02-11T20:06:54.015Z,104.35
2023-02-11T20:09:23.184Z,111.45
2023-02-11T20:11:51.686Z,98.18
2023-02-11T20:14:20.222Z,94.65
2023-02-11T20:16:50.092Z,74.22
2023-02-11T20:19:22.157Z,86.68
2023-02-11T20:21:56.156Z,85.45
2023-02-11T20:24:25.969Z,77.60
2023-02-11T20:26:57.378Z,74.55
2023-02-11T20:29:26.274Z,93.80
2023-02-11T20:31:55.335Z,87.53
2023-02-11T20:34:25.345Z,73.32
2023-02-11T20:36:54.692Z,60.13
2023-02-11T20:39:25.700Z,72.30
2023-02-11T20:41:54.884Z,69.70
2023-02-11T20:44:23.768Z,61.17
2023-02-11T20:46:54.638Z,63.05
2023-02-11T20:49:25.035Z,51.67
2023-02-11T20:51:54.326Z,59.33
2023-02-11T20:54:25.299Z,61.15
2023-02-11T20:56:54.607Z,80.63
2023-02-11T20:59:23.350Z,83.72
2023-02-11T21:01:54.398Z,73.03
2023-02-11T21:04:29.851Z,55.33
2023-02-11T21:07:00.981Z,76.20
2023-02-11T21:09:32.575Z,74.45
2023-02-11T21:12:01.929Z,94.15
2023-02-11T21:14:30.787Z,99.38
2023-02-11T21:16:59.396Z,116.68
2023-02-11T21:19:27.691Z,83.22
2023-02-11T21:21:57.524Z,61.33
2023-02-11T21:26:54.368Z,54.00
2023-02-11T21:29:22.791Z,49.28
2023-02-11T21:31:51.860Z,40.38
2023-02-11T21:34:20.938Z,45.95
2023-02-11T21:36:51.492Z,62.65
2023-02-11T21:39:20.789Z,63.40
2023-02-11T21:41:49.551Z,65.57
2023-02-11T21:44:18.107Z,69.10
2023-02-11T21:46:46.143Z,67.10
2023-02-11T21:49:14.313Z,70.93
2023-02-11T21:51:42.752Z,71.97
2023-02-11T21:54:12.161Z,64.28
2023-02-11T21:56:40.811Z,53.80
2023-02-11T21:59:12.477Z,48.20
2023-02-11T22:01:40.811Z,42.28
2023-02-11T22:04:10.249Z,57.42
2023-02-11T22:09:08.722Z,41.80
2023-02-11T22:11:36.970Z,53.30
2023-02-11T22:14:05.347Z,58.50
2023-02-11T22:16:33.626Z,59.83
2023-02-11T22:19:02.692Z,56.90
2023-02-11T22:21:32.579Z,48.58
2023-02-11T22:24:00.561Z,51.83
2023-02-11T22:26:29.041Z,61.03
2023-02-11T22:28:57.112Z,84.63
2023-02-11T22:31:31.433Z,73.22
2023-02-11T22:34:00.530Z,37.17
2023-02-11T22:36:34.852Z,49.65
2023-02-11T22:39:08.263Z,50.85
2023-02-11T22:41:38.467Z,52.47
2023-02-11T22:44:06.864Z,47.58
2023-02-11T22:46:35.651Z,44.30
2023-02-11T22:49:05.139Z,48.00
2023-02-11T22:51:33.378Z,55.08
2023-02-11T22:54:03.947Z,55.80
2023-02-11T22:56:33.782Z,34.47
2023-02-11T23:01:31.762Z,28.77
2023-02-11T23:04:02.640Z,28.17
2023-02-11T23:06:30.939Z,34.92
2023-02-11T23:08:58.966Z,46.28
2023-02-11T23:11:29.091Z,30.30
2023-02-11T23:13:57.288Z,29.75
2023-02-11T23:16:33.627Z,58.50
2023-02-11T23:19:05.295Z,53.42
2023-02-11T23:21:36.987Z,40.45
2023-02-11T23:24:12.583Z,35.42
2023-02-11T23:26:41.847Z,34.67
2023-02-11T23:29:10.350Z,49.10
2023-02-11T23:31:40.833Z,48.22
2023-02-11T23:34:10.281Z,46.88
2023-02-11T23:36:38.146Z,42.20
2023-02-11T23:39:06.469Z,36.13
2023-02-11T23:41:34.326Z,36.58
2023-02-11T23:44:02.334Z,36.08
2023-02-11T23:46:30.261Z,40.80
2023-02-11T23:48:58.175Z,33.30
2023-02-11T23:51:26.111Z,29.48
2023-02-11T23:53:56.317Z,32.30
2023-02-11T23:56:26.821Z,37.17
2023-02-11T23:58:57.429Z,39.60
